Time;durP1;ratioP1;P1;durP2;ratioP2;P2;SDS_P1;SDS_P2;PMS_P1;PMS_P2;Temp;Humidity;BMP_temperature;BMP_pressure;BME280_temperature;BME280_humidity;BME280_pressure;Samples;Min_cycle;Max_cycle;Signal;HPM_P1;HPM_P2
2023/05/23 00:00:59;;;;;;;8.43;5.70;;;12.40;86.20;;;;;;5058477;28;20017;-78
2023/05/23 00:03:25;;;;;;;8.88;6.07;;;12.40;86.50;;;;;;5058562;28;20124;-79
2023/05/23 00:05:51;;;;;;;8.57;5.60;;;12.30;86.20;;;;;;5076254;28;20021;-79
2023/05/23 00:08:17;;;;;;;10.52;5.60;;;12.30;86.60;;;;;;5076256;28;20031;-79
2023/05/23 00:10:44;;;;;;;7.85;5.47;;;12.30;86.70;;;;;;5075631;28;20048;-79
2023/05/23 00:13:11;;;;;;;8.23;5.78;;;12.30;86.80;;;;;;5058218;28;20025;-79
2023/05/23 00:15:37;;;;;;;10.15;6.75;;;12.20;87.30;;;;;;5058217;28;20116;-79
2023/05/23 00:18:03;;;;;;;9.43;5.43;;;12.20;87.50;;;;;;5075827;28;20080;-79
2023/05/23 00:20:29;;;;;;;7.38;6.22;;;12.20;87.80;;;;;;5058046;28;20048;-79
2023/05/23 00:22:57;;;;;;;10.10;6.30;;;12.20;87.90;;;;;;5056451;28;20207;-80
2023/05/23 00:25:23;;;;;;;7.50;6.05;;;12.20;88.00;;;;;;5057991;28;20017;-79
2023/05/23 00:27:49;;;;;;;7.78;5.35;;;12.10;87.80;;;;;;5057826;28;20504;-79
2023/05/23 00:30:15;;;;;;;9.05;6.03;;;12.10;87.80;;;;;;5075927;28;20044;-79
2023/05/23 00:32:41;;;;;;;9.00;5.60;;;12.10;88.30;;;;;;5075816;28;20020;-80
2023/05/23 00:35:07;;;;;;;6.85;6.18;;;12.10;87.80;;;;;;5057939;28;20016;-79
2023/05/23 00:37:33;;;;;;;7.07;5.53;;;12.10;88.20;;;;;;5075587;28;20020;-78
2023/05/23 00:39:59;;;;;;;10.10;5.70;;;12.00;88.20;;;;;;5057652;28;20077;-79
2023/05/23 00:42:24;;;;;;;7.45;5.95;;;12.00;88.60;;;;;;5075439;28;20091;-79
2023/05/23 00:44:50;;;;;;;9.48;5.97;;;12.00;89.00;;;;;;5075553;28;20044;-79
2023/05/23 00:47:16;;;;;;;6.78;5.63;;;12.00;88.70;;;;;;5075584;28;20024;-79
2023/05/23 00:49:42;;;;;;;7.68;5.30;;;12.00;88.30;;;;;;5057667;28;20024;-79
2023/05/23 00:52:09;;;;;;;6.40;5.57;;;12.00;88.10;;;;;;5075468;28;20056;-79
2023/05/23 00:54:36;;;;;;;9.65;6.22;;;12.00;88.20;;;;;;5057583;28;20385;-79
2023/05/23 00:57:02;;;;;;;8.02;5.40;;;12.00;87.80;;;;;;5075304;28;20113;-79
2023/05/23 00:59:29;;;;;;;7.05;5.43;;;12.00;87.90;;;;;;5057461;28;20048;-79
2023/05/23 01:01:56;;;;;;;7.55;5.53;;;12.00;88.30;;;;;;5075061;28;20473;-79
2023/05/23 01:04:25;;;;;;;7.57;6.13;;;11.90;89.20;;;;;;5075210;28;20024;-79
2023/05/23 01:06:52;;;;;;;11.13;6.00;;;11.80;89.50;;;;;;5075097;28;20062;-79
2023/05/23 01:09:20;;;;;;;7.72;5.63;;;11.80;90.00;;;;;;5075156;28;20028;-79
2023/05/23 01:12:13;;;;;;;7.53;5.70;;;11.70;90.80;;;;;;5074921;28;20027;-79
2023/05/23 01:15:09;;;;;;;8.15;6.18;;;11.70;91.40;;;;;;5057134;28;20436;-79
2023/05/23 01:17:49;;;;;;;7.93;6.07;;;11.60;92.20;;;;;;5074769;28;20028;-80
2023/05/23 01:20:44;;;;;;;7.53;5.75;;;11.60;92.00;;;;;;5056940;28;20053;-79
2023/05/23 01:24:21;;;;;;;8.57;5.45;;;11.50;92.20;;;;;;5048890;28;20445;-80
2023/05/23 01:26:53;;;;;;;7.40;5.55;;;11.50;93.10;;;;;;4961697;28;20034;-79
2023/05/23 01:29:25;;;;;;;6.07;5.13;;;11.50;92.70;;;;;;4993420;28;20062;-79
2023/05/23 01:31:53;;;;;;;6.13;5.50;;;11.50;92.90;;;;;;5039049;28;20040;-79
2023/05/23 01:34:20;;;;;;;10.02;6.28;;;11.40;93.50;;;;;;5056243;28;20020;-79
2023/05/23 01:36:52;;;;;;;7.43;5.38;;;11.40;93.50;;;;;;5056556;28;20028;-79
2023/05/23 01:39:18;;;;;;;7.40;5.82;;;11.30;94.30;;;;;;5074605;28;20048;-79
2023/05/23 01:41:43;;;;;;;10.85;5.53;;;11.30;94.90;;;;;;5074472;28;20060;-79
2023/05/23 01:44:09;;;;;;;9.93;5.43;;;11.20;95.50;;;;;;5056497;28;20110;-79
2023/05/23 01:46:38;;;;;;;6.53;5.40;;;11.20;96.50;;;;;;5056433;28;20021;-78
2023/05/23 01:49:06;;;;;;;11.18;6.45;;;11.10;96.80;;;;;;5074327;28;20111;-79
2023/05/23 01:51:33;;;;;;;6.07;4.97;;;11.10;96.80;;;;;;5074219;28;20024;-79
2023/05/23 01:53:59;;;;;;;8.77;6.38;;;11.10;97.40;;;;;;5056338;28;20024;-79
2023/05/23 01:56:27;;;;;;;7.53;6.20;;;11.10;96.90;;;;;;5074100;28;20190;-79
2023/05/23 01:58:53;;;;;;;6.15;5.55;;;11.10;97.00;;;;;;5074105;28;20017;-79
2023/05/23 02:01:19;;;;;;;7.68;5.93;;;11.10;96.60;;;;;;5055973;28;20062;-79
2023/05/23 02:03:45;;;;;;;8.40;5.80;;;11.10;96.80;;;;;;5056080;28;20062;-80
2023/05/23 02:06:10;;;;;;;7.20;5.57;;;11.10;96.00;;;;;;5056135;28;20016;-80
2023/05/23 02:08:36;;;;;;;11.30;5.88;;;11.10;96.30;;;;;;5056008;28;20427;-80
2023/05/23 02:11:02;;;;;;;9.05;5.55;;;11.10;96.10;;;;;;5055874;28;20547;-80
2023/05/23 02:13:27;;;;;;;8.30;5.60;;;11.10;95.80;;;;;;5073985;28;20039;-79
2023/05/23 02:15:53;;;;;;;8.07;5.68;;;11.10;95.20;;;;;;5055913;28;20051;-79
2023/05/23 02:18:19;;;;;;;9.30;5.85;;;11.10;95.00;;;;;;5055698;28;20106;-80
2023/05/23 02:20:45;;;;;;;7.88;5.80;;;11.10;94.40;;;;;;5055722;28;20035;-80
2023/05/23 02:23:11;;;;;;;10.80;5.70;;;11.10;93.90;;;;;;5055700;28;20028;-80
2023/05/23 02:25:37;;;;;;;6.35;5.03;;;11.10;94.20;;;;;;5055773;28;20013;-79
2023/05/23 02:28:02;;;;;;;6.13;5.35;;;11.10;93.80;;;;;;5055637;28;20530;-80
2023/05/23 02:30:28;;;;;;;8.90;6.15;;;11.10;94.40;;;;;;5073543;28;20021;-80
2023/05/23 02:32:53;;;;;;;8.95;5.18;;;11.10;95.10;;;;;;5055542;28;20017;-80
2023/05/23 02:35:19;;;;;;;7.85;5.95;;;11.00;94.40;;;;;;5073661;28;20032;-80
2023/05/23 02:37:45;;;;;;;8.27;5.72;;;11.00;95.70;;;;;;5055620;28;20024;-79
2023/05/23 02:40:11;;;;;;;7.90;6.00;;;11.00;96.00;;;;;;5055552;28;20481;-79
2023/05/23 02:42:36;;;;;;;8.30;5.95;;;10.90;95.70;;;;;;5055413;28;20068;-79
2023/05/23 02:45:02;;;;;;;8.93;6.55;;;10.90;97.00;;;;;;5073193;28;20021;-80
2023/05/23 02:47:27;;;;;;;6.75;5.70;;;10.90;97.60;;;;;;5072877;28;20024;-79
2023/05/23 02:49:53;;;;;;;8.20;5.70;;;10.90;98.50;;;;;;5073463;28;20045;-79
2023/05/23 02:52:19;;;;;;;8.63;6.10;;;10.90;98.30;;;;;;5055346;28;20017;-79
2023/05/23 02:54:45;;;;;;;7.80;6.20;;;10.80;99.20;;;;;;5073362;28;20111;-79
2023/05/23 02:57:10;;;;;;;9.85;6.20;;;10.80;99.60;;;;;;5073298;28;20067;-79
2023/05/23 02:59:36;;;;;;;13.65;6.47;;;10.80;99.90;;;;;;5073258;28;20021;-79
2023/05/23 03:02:01;;;;;;;9.80;6.05;;;10.80;98.90;;;;;;5055185;28;20166;-79
2023/05/23 03:04:28;;;;;;;12.32;6.07;;;10.80;99.90;;;;;;5073401;28;20466;-79
2023/05/23 03:06:53;;;;;;;6.18;5.25;;;10.80;99.60;;;;;;5073275;28;20016;-79
2023/05/23 03:09:20;;;;;;;9.65;6.22;;;10.80;98.90;;;;;;5055225;28;20398;-78
2023/05/23 03:11:46;;;;;;;6.70;5.72;;;10.80;99.80;;;;;;5073059;28;20482;-79
2023/05/23 03:14:11;;;;;;;7.10;5.28;;;10.80;99.30;;;;;;5055224;28;20031;-79
2023/05/23 03:16:37;;;;;;;7.03;5.55;;;10.90;99.40;;;;;;5055115;28;20061;-79
2023/05/23 03:19:03;;;;;;;9.60;6.22;;;10.90;99.00;;;;;;5055016;28;20431;-79
2023/05/23 03:21:30;;;;;;;8.63;6.18;;;10.90;98.70;;;;;;5054930;28;20034;-79
2023/05/23 03:23:56;;;;;;;9.65;5.63;;;11.00;99.00;;;;;;5073143;28;20462;-78
2023/05/23 03:26:21;;;;;;;9.45;6.10;;;11.10;97.50;;;;;;5055010;28;20045;-79
2023/05/23 03:28:49;;;;;;;8.95;5.63;;;11.20;97.30;;;;;;5055116;28;20469;-78
2023/05/23 03:31:14;;;;;;;10.50;6.03;;;11.30;96.20;;;;;;5073028;28;20021;-78
2023/05/23 03:33:40;;;;;;;9.20;5.80;;;11.50;94.00;;;;;;5054994;28;20362;-80
2023/05/23 03:36:06;;;;;;;8.57;5.88;;;11.70;92.70;;;;;;5054951;28;20432;-79
2023/05/23 03:38:31;;;;;;;8.10;5.50;;;11.80;90.70;;;;;;5054768;28;20016;-80
2023/05/23 03:40:57;;;;;;;7.97;5.43;;;11.90;89.10;;;;;;5054850;28;20048;-80
2023/05/23 03:43:22;;;;;;;9.40;6.35;;;12.10;87.50;;;;;;5072731;28;20062;-80
2023/05/23 03:45:48;;;;;;;8.15;5.40;;;12.20;86.20;;;;;;5054922;28;20043;-80
2023/05/23 03:48:14;;;;;;;6.55;4.97;;;12.40;84.40;;;;;;5072785;28;20028;-80
2023/05/23 03:50:40;;;;;;;7.60;5.70;;;12.50;83.20;;;;;;5072843;28;20020;-80
2023/05/23 03:53:06;;;;;;;10.40;5.97;;;12.60;82.00;;;;;;5072176;28;20031;-79
2023/05/23 03:55:31;;;;;;;6.80;5.07;;;12.70;81.40;;;;;;5072591;28;20082;-80
2023/05/23 03:57:57;;;;;;;10.60;5.43;;;12.80;80.40;;;;;;5056940;28;20496;-80
2023/05/23 04:00:23;;;;;;;8.45;5.38;;;12.90;80.30;;;;;;5058465;28;20099;-80
2023/05/23 04:02:50;;;;;;;7.75;5.68;;;13.00;79.90;;;;;;5076218;28;20036;-78
2023/05/23 04:05:16;;;;;;;9.38;5.82;;;13.00;79.40;;;;;;5058415;28;20055;-78
2023/05/23 04:07:42;;;;;;;9.45;5.00;;;13.10;79.20;;;;;;5058210;28;20017;-79
2023/05/23 04:10:08;;;;;;;7.15;5.82;;;13.20;79.80;;;;;;5076237;28;20092;-79
2023/05/23 04:12:35;;;;;;;8.77;6.75;;;13.20;78.90;;;;;;5058202;28;20379;-78
2023/05/23 04:15:01;;;;;;;12.32;6.00;;;13.20;79.40;;;;;;5076232;28;20029;-79
2023/05/23 04:17:28;;;;;;;6.50;5.70;;;13.30;79.50;;;;;;5058141;28;20021;-80
2023/05/23 04:19:54;;;;;;;7.88;5.63;;;13.30;79.30;;;;;;5075815;28;20068;-79
2023/05/23 04:22:19;;;;;;;8.23;6.00;;;13.40;78.80;;;;;;5075925;28;20064;-79
2023/05/23 04:24:45;;;;;;;6.78;5.70;;;13.50;78.90;;;;;;5058077;28;20032;-79
2023/05/23 04:27:10;;;;;;;6.07;5.47;;;13.50;78.90;;;;;;5058077;28;20367;-80
2023/05/23 04:29:37;;;;;;;10.75;5.65;;;13.60;78.20;;;;;;5075883;28;20024;-80
2023/05/23 04:32:02;;;;;;;8.32;6.03;;;13.70;78.00;;;;;;5075836;28;20024;-79
2023/05/23 04:34:29;;;;;;;8.65;5.70;;;13.80;78.10;;;;;;5075713;28;20028;-80
2023/05/23 04:36:55;;;;;;;8.05;5.97;;;13.80;78.00;;;;;;5057709;28;20485;-80
2023/05/23 04:39:20;;;;;;;8.27;5.95;;;13.90;78.30;;;;;;5057773;28;20032;-79
2023/05/23 04:41:46;;;;;;;9.15;6.30;;;13.90;77.70;;;;;;5075472;28;20371;-79
2023/05/23 04:44:13;;;;;;;8.00;6.80;;;14.00;77.50;;;;;;5057803;28;20101;-79
2023/05/23 04:46:44;;;;;;;9.48;6.90;;;14.10;77.10;;;;;;5075520;28;20485;-79
2023/05/23 04:49:09;;;;;;;9.55;5.93;;;14.10;77.10;;;;;;5057653;28;20021;-79
2023/05/23 04:51:35;;;;;;;8.75;5.88;;;14.20;77.20;;;;;;5075463;28;20385;-79
2023/05/23 04:54:01;;;;;;;7.95;6.28;;;14.20;76.80;;;;;;5053226;28;20025;-79
2023/05/23 04:56:27;;;;;;;11.40;5.85;;;14.30;75.90;;;;;;5055336;28;20021;-79
2023/05/23 04:58:53;;;;;;;6.30;5.57;;;14.30;76.70;;;;;;5037728;28;20025;-79
2023/05/23 05:01:19;;;;;;;7.63;5.40;;;14.40;76.30;;;;;;5055214;28;20032;-79
2023/05/23 05:03:46;;;;;;;7.63;5.40;;;14.50;75.90;;;;;;5037291;28;20021;-79
2023/05/23 05:06:12;;;;;;;7.10;5.63;;;14.50;74.50;;;;;;5055169;28;20028;-79
2023/05/23 05:08:39;;;;;;;12.52;6.40;;;14.60;74.10;;;;;;5054427;28;20057;-79
2023/05/23 05:11:05;;;;;;;7.28;4.97;;;14.60;74.10;;;;;;5055137;28;20474;-79
2023/05/23 05:13:30;;;;;;;8.73;6.13;;;14.70;74.30;;;;;;5056779;28;20024;-79
2023/05/23 05:15:57;;;;;;;9.45;5.88;;;14.70;74.90;;;;;;5057018;28;20035;-79
2023/05/23 05:18:24;;;;;;;8.68;5.18;;;14.80;75.20;;;;;;5053357;28;20049;-79
2023/05/23 05:20:50;;;;;;;13.75;5.80;;;14.80;74.60;;;;;;5054725;28;20024;-79
2023/05/23 05:23:15;;;;;;;9.02;5.50;;;14.90;75.90;;;;;;5056554;28;20017;-79
2023/05/23 05:25:41;;;;;;;6.70;5.95;;;14.90;75.50;;;;;;5056776;28;20020;-79
2023/05/23 05:28:07;;;;;;;5.97;5.38;;;15.10;75.10;;;;;;5056839;28;20025;-80
2023/05/23 05:30:34;;;;;;;5.53;4.85;;;15.10;73.80;;;;;;5056803;28;20025;-80
2023/05/23 05:33:03;;;;;;;8.98;5.82;;;15.20;73.00;;;;;;5056701;28;20028;-79
2023/05/23 05:35:33;;;;;;;7.82;5.18;;;15.30;73.80;;;;;;5056575;28;20500;-81
2023/05/23 05:38:03;;;;;;;6.75;5.05;;;15.40;74.10;;;;;;5074498;28;20070;-80
2023/05/23 05:40:29;;;;;;;8.50;6.05;;;15.50;72.60;;;;;;5056684;28;20020;-80
2023/05/23 05:42:55;;;;;;;7.22;5.47;;;15.60;71.60;;;;;;5056444;28;20104;-79
2023/05/23 05:45:21;;;;;;;10.13;5.47;;;15.70;71.00;;;;;;5035752;28;20020;-79
2023/05/23 05:47:46;;;;;;;9.18;5.88;;;15.80;69.70;;;;;;5053032;28;20055;-79
2023/05/23 05:50:12;;;;;;;7.82;6.18;;;15.90;69.70;;;;;;5035202;28;20025;-78
2023/05/23 05:52:38;;;;;;;7.55;4.97;;;16.00;70.10;;;;;;5055881;28;20040;-79
2023/05/23 05:55:12;;;;;;;6.65;4.93;;;16.00;69.20;;;;;;5036521;28;20021;-79
2023/05/23 05:57:38;;;;;;;11.73;5.65;;;16.10;69.00;;;;;;5033806;28;20433;-78
2023/05/23 06:00:14;;;;;;;10.68;5.55;;;16.40;70.00;;;;;;5053336;28;20099;-80
2023/05/23 06:02:41;;;;;;;7.82;5.15;;;16.50;69.80;;;;;;5034166;28;20043;-79
2023/05/23 06:05:11;;;;;;;18.58;6.57;;;16.70;69.50;;;;;;5038059;28;20549;-78
2023/05/23 06:07:38;;;;;;;10.05;5.72;;;16.80;67.60;;;;;;5052892;28;20075;-79
2023/05/23 06:10:04;;;;;;;19.92;5.82;;;16.80;67.40;;;;;;5052035;28;20439;-79
2023/05/23 06:12:29;;;;;;;9.23;5.97;;;17.00;67.80;;;;;;5032507;28;20025;-78
2023/05/23 06:14:55;;;;;;;18.45;6.15;;;17.10;67.00;;;;;;5051961;28;20509;-79
2023/05/23 06:17:21;;;;;;;10.50;5.85;;;17.20;66.60;;;;;;5031514;28;20033;-77
2023/05/23 06:19:46;;;;;;;8.35;4.90;;;17.40;67.00;;;;;;5031735;28;20045;-79
2023/05/23 06:22:12;;;;;;;8.90;5.18;;;17.40;64.30;;;;;;5027363;28;20041;-80
2023/05/23 06:24:37;;;;;;;12.07;5.97;;;17.40;64.00;;;;;;5031660;28;20043;-79
2023/05/23 06:27:03;;;;;;;9.48;5.35;;;17.60;64.40;;;;;;5012136;28;20024;-79
2023/05/23 06:29:30;;;;;;;10.52;5.13;;;17.90;65.70;;;;;;5008749;28;20215;-79
2023/05/23 06:31:56;;;;;;;7.00;5.60;;;18.10;64.60;;;;;;5010735;28;20029;-79
2023/05/23 06:34:21;;;;;;;6.53;5.45;;;18.10;62.10;;;;;;5028531;28;20040;-79
2023/05/23 06:36:47;;;;;;;6.90;5.30;;;18.30;62.30;;;;;;5030196;28;20491;-79
2023/05/23 06:39:13;;;;;;;7.07;4.88;;;18.40;61.50;;;;;;5030168;28;20092;-79
2023/05/23 06:41:39;;;;;;;8.25;4.75;;;18.50;61.70;;;;;;5029969;28;20037;-80
2023/05/23 06:44:04;;;;;;;8.07;5.28;;;18.70;61.60;;;;;;5014031;28;20040;-80
2023/05/23 06:46:30;;;;;;;7.40;4.50;;;18.80;59.80;;;;;;5013458;28;20028;-78
2023/05/23 06:48:56;;;;;;;10.10;4.53;;;18.90;59.50;;;;;;5031951;28;20495;-77
2023/05/23 06:51:21;;;;;;;7.65;4.85;;;19.00;58.40;;;;;;5031593;28;20017;-78
2023/05/23 06:53:47;;;;;;;6.57;4.85;;;19.00;58.30;;;;;;5031531;28;20502;-80
2023/05/23 06:56:13;;;;;;;12.35;4.78;;;19.20;57.20;;;;;;5032102;28;20021;-78
2023/05/23 06:58:38;;;;;;;6.20;4.95;;;19.30;57.90;;;;;;5031716;28;20041;-78
2023/05/23 07:01:04;;;;;;;10.63;4.10;;;19.30;55.60;;;;;;5011592;28;20022;-80
2023/05/23 07:03:29;;;;;;;4.85;4.13;;;19.40;56.40;;;;;;5012945;28;20056;-79
2023/05/23 07:05:55;;;;;;;7.65;4.63;;;19.40;55.80;;;;;;5014344;28;20130;-77
2023/05/23 07:08:21;;;;;;;20.75;6.10;;;19.50;56.00;;;;;;5030398;28;20410;-77
2023/05/23 07:10:47;;;;;;;10.82;4.72;;;19.60;55.60;;;;;;5031793;28;20123;-80
2023/05/23 07:13:12;;;;;;;7.50;5.03;;;19.50;55.50;;;;;;5013756;28;20163;-80
2023/05/23 07:15:38;;;;;;;7.90;5.15;;;19.80;55.90;;;;;;5013046;28;20014;-79
2023/05/23 07:18:03;;;;;;;5.72;4.22;;;19.70;54.30;;;;;;5013394;28;20414;-80
2023/05/23 07:20:29;;;;;;;5.55;4.18;;;19.90;55.30;;;;;;5047029;28;20017;-80
2023/05/23 07:22:56;;;;;;;6.93;4.30;;;20.00;54.50;;;;;;5050178;28;20040;-78
2023/05/23 07:25:22;;;;;;;4.90;3.50;;;20.00;52.70;;;;;;5052014;28;20534;-78
2023/05/23 07:27:47;;;;;;;6.65;4.20;;;19.90;52.00;;;;;;5052195;28;20387;-80
2023/05/23 07:30:13;;;;;;;3.97;3.58;;;19.90;52.40;;;;;;5051500;28;20033;-81
2023/05/23 07:32:39;;;;;;;5.55;3.83;;;19.90;51.40;;;;;;5052500;28;20029;-80
2023/05/23 07:35:05;;;;;;;4.82;3.60;;;19.80;50.90;;;;;;5055036;28;20108;-77
2023/05/23 07:37:31;;;;;;;5.90;3.63;;;20.00;50.80;;;;;;5050566;28;20409;-77
2023/05/23 07:39:56;;;;;;;7.78;3.40;;;20.00;51.10;;;;;;5037440;28;20040;-77
2023/05/23 07:42:22;;;;;;;6.40;3.55;;;20.00;50.60;;;;;;5050260;28;20079;-77
2023/05/23 07:44:47;;;;;;;5.15;3.50;;;20.10;50.60;;;;;;5051775;28;20024;-80
2023/05/23 07:47:13;;;;;;;7.72;3.92;;;20.20;51.60;;;;;;5049199;28;20018;-81
2023/05/23 07:49:38;;;;;;;6.50;3.35;;;20.50;52.10;;;;;;5049331;28;20029;-81
2023/05/23 07:52:05;;;;;;;5.95;3.85;;;20.60;51.00;;;;;;5053595;28;20017;-81
2023/05/23 07:54:31;;;;;;;7.00;4.43;;;20.70;49.60;;;;;;5053206;28;20112;-81
2023/05/23 07:56:56;;;;;;;7.05;3.60;;;20.80;50.20;;;;;;5053494;28;20115;-80
2023/05/23 07:59:22;;;;;;;4.40;3.97;;;20.90;49.80;;;;;;5050151;28;20053;-80
2023/05/23 08:01:49;;;;;;;4.53;4.13;;;21.00;50.30;;;;;;5048498;28;20060;-81
2023/05/23 08:04:16;;;;;;;5.25;4.35;;;21.00;49.40;;;;;;5055053;28;20051;-80
2023/05/23 08:06:41;;;;;;;8.07;4.38;;;21.00;49.10;;;;;;5051889;28;20470;-77
2023/05/23 08:09:07;;;;;;;5.22;4.13;;;21.00;50.50;;;;;;5055231;28;20029;-77
2023/05/23 08:11:33;;;;;;;5.07;4.05;;;21.10;49.30;;;;;;5050424;28;20522;-77
2023/05/23 08:13:58;;;;;;;8.85;4.47;;;21.20;49.00;;;;;;5045743;28;20098;-77
2023/05/23 08:16:26;;;;;;;6.15;4.20;;;21.10;49.30;;;;;;5054354;28;20470;-77
2023/05/23 08:18:52;;;;;;;12.85;4.75;;;21.20;48.70;;;;;;5033781;28;20045;-77
2023/05/23 08:21:17;;;;;;;8.80;3.50;;;21.10;48.30;;;;;;5012659;28;20382;-78
2023/05/23 08:23:43;;;;;;;5.07;3.60;;;21.20;48.90;;;;;;5033493;28;20097;-78
2023/05/23 08:26:08;;;;;;;3.85;3.03;;;21.40;49.60;;;;;;5016438;28;20022;-81
2023/05/23 08:28:34;;;;;;;5.50;4.00;;;21.50;49.10;;;;;;5014955;28;20022;-79
2023/05/23 08:31:00;;;;;;;7.97;3.58;;;21.50;48.90;;;;;;5030955;28;20404;-78
2023/05/23 08:33:25;;;;;;;14.95;3.90;;;21.60;49.70;;;;;;5032777;28;20026;-78
2023/05/23 08:35:51;;;;;;;6.10;3.45;;;21.50;47.90;;;;;;5033265;28;20095;-79
2023/05/23 08:38:20;;;;;;;3.38;3.08;;;21.50;48.00;;;;;;5033549;28;20028;-78
2023/05/23 08:40:51;;;;;;;3.92;3.38;;;21.50;47.60;;;;;;5033679;28;20087;-78
2023/05/23 08:43:17;;;;;;;4.82;4.07;;;21.30;48.00;;;;;;5015346;28;20064;-78
2023/05/23 08:45:43;;;;;;;4.50;3.85;;;21.40;49.30;;;;;;5016007;28;20108;-79
2023/05/23 08:48:12;;;;;;;3.97;3.63;;;21.40;48.30;;;;;;5034859;28;20028;-78
2023/05/23 08:50:39;;;;;;;4.45;3.88;;;21.50;48.00;;;;;;5033540;28;20451;-78
2023/05/23 08:53:07;;;;;;;5.93;4.68;;;21.50;48.50;;;;;;5033607;28;20067;-77
2023/05/23 08:55:33;;;;;;;5.47;3.83;;;21.50;49.10;;;;;;5032385;28;20509;-78
2023/05/23 08:57:59;;;;;;;3.80;3.50;;;21.80;48.80;;;;;;5017170;28;20387;-78
2023/05/23 09:00:26;;;;;;;5.03;3.83;;;21.80;47.10;;;;;;5017603;28;20025;-78
2023/05/23 09:02:53;;;;;;;7.28;4.05;;;21.80;48.30;;;;;;5035211;28;20112;-80
2023/05/23 09:05:19;;;;;;;4.82;4.30;;;21.80;48.40;;;;;;5035231;28;20021;-78
2023/05/23 09:07:50;;;;;;;6.85;4.38;;;21.80;48.60;;;;;;5017494;28;20033;-79
2023/05/23 09:10:16;;;;;;;6.88;4.13;;;21.80;49.20;;;;;;5017180;28;20021;-77
2023/05/23 09:12:42;;;;;;;5.63;4.00;;;21.90;48.30;;;;;;5035099;28;20052;-81
2023/05/23 09:15:09;;;;;;;3.85;3.33;;;21.80;49.10;;;;;;5017407;28;20022;-77
2023/05/23 09:17:36;;;;;;;13.82;5.00;;;21.80;47.30;;;;;;5017033;28;20104;-81
2023/05/23 09:20:05;;;;;;;9.50;4.28;;;21.90;48.10;;;;;;5054371;28;20052;-82
2023/05/23 09:22:31;;;;;;;4.93;3.40;;;22.00;47.30;;;;;;5035918;28;20037;-82
2023/05/23 09:24:57;;;;;;;4.75;3.92;;;22.00;47.70;;;;;;5034655;28;20410;-80
2023/05/23 09:27:23;;;;;;;20.17;5.28;;;22.10;46.90;;;;;;5034938;28;20075;-80
2023/05/23 09:29:49;;;;;;;6.68;4.50;;;22.20;48.00;;;;;;5034850;28;20071;-79
2023/05/23 09:32:19;;;;;;;8.90;3.58;;;22.20;46.60;;;;;;5034810;28;20023;-80
2023/05/23 09:35:06;;;;;;;6.70;4.13;;;22.30;46.00;;;;;;5034962;28;20502;-81
2023/05/23 09:37:35;;;;;;;14.20;4.72;;;22.30;46.80;;;;;;5052756;28;20053;-80
2023/05/23 09:40:05;;;;;;;7.00;4.28;;;22.30;47.10;;;;;;5054228;28;20032;-80
2023/05/23 09:42:35;;;;;;;4.03;3.63;;;22.40;45.90;;;;;;5036569;28;20029;-80
2023/05/23 09:45:01;;;;;;;5.18;3.60;;;22.40;43.60;;;;;;5054542;28;20055;-80
2023/05/23 09:47:27;;;;;;;6.32;3.45;;;22.30;43.80;;;;;;5036513;28;20074;-81
2023/05/23 09:49:53;;;;;;;3.72;3.40;;;22.60;47.10;;;;;;5054502;28;20024;-80
2023/05/23 09:52:21;;;;;;;4.72;3.72;;;22.70;46.40;;;;;;5036435;28;20021;-81
2023/05/23 09:54:47;;;;;;;5.15;3.58;;;22.70;44.80;;;;;;5053984;28;20024;-80
2023/05/23 09:57:17;;;;;;;6.72;3.55;;;22.90;46.00;;;;;;5036291;28;20155;-82
2023/05/23 09:59:51;;;;;;;5.80;3.20;;;22.90;46.60;;;;;;5036280;28;20043;-80
2023/05/23 10:02:30;;;;;;;6.13;4.18;;;22.80;45.70;;;;;;5054136;28;20040;-80
2023/05/23 10:04:56;;;;;;;5.82;3.90;;;22.90;46.80;;;;;;5054153;28;20028;-80
2023/05/23 10:07:24;;;;;;;6.05;3.45;;;22.90;45.60;;;;;;5036189;28;20036;-80
2023/05/23 10:09:55;;;;;;;4.05;3.65;;;22.90;46.30;;;;;;5054104;28;20099;-80
2023/05/23 10:12:43;;;;;;;5.15;3.70;;;23.00;46.60;;;;;;5035639;28;20021;-82
2023/05/23 10:15:12;;;;;;;4.55;3.20;;;23.00;46.30;;;;;;5054138;28;20029;-81
2023/05/23 10:18:11;;;;;;;4.85;3.17;;;23.10;47.00;;;;;;5053604;28;20132;-83
2023/05/23 10:20:42;;;;;;;3.70;3.33;;;23.10;45.70;;;;;;5053845;28;20033;-82
2023/05/23 10:23:08;;;;;;;5.13;3.55;;;23.30;46.20;;;;;;5054063;28;20032;-79
2023/05/23 10:25:35;;;;;;;5.47;3.40;;;23.40;46.20;;;;;;5035854;28;20025;-81
2023/05/23 10:28:02;;;;;;;4.78;3.53;;;23.40;46.70;;;;;;5035852;28;20490;-80
2023/05/23 10:30:28;;;;;;;3.63;3.17;;;23.50;46.90;;;;;;5035940;28;20020;-80
2023/05/23 10:32:55;;;;;;;6.28;4.13;;;23.60;45.90;;;;;;5035803;28;20500;-82
2023/05/23 10:35:44;;;;;;;4.63;3.60;;;23.60;46.10;;;;;;5035768;28;20031;-82
2023/05/23 10:38:23;;;;;;;7.43;3.83;;;23.70;45.80;;;;;;5035767;28;20037;-80
2023/05/23 10:41:10;;;;;;;3.90;3.40;;;23.70;45.70;;;;;;5053542;28;20052;-80
2023/05/23 10:44:14;;;;;;;5.32;3.80;;;23.80;45.40;;;;;;5035633;28;20135;-82
2023/05/23 10:46:54;;;;;;;6.35;3.80;;;24.00;44.80;;;;;;4989882;28;20034;-80
2023/05/23 10:49:21;;;;;;;5.47;3.75;;;23.90;45.90;;;;;;4975720;28;20479;-81
2023/05/23 10:51:50;;;;;;;4.40;3.88;;;23.90;45.80;;;;;;5008732;28;20025;-80
2023/05/23 10:54:21;;;;;;;5.38;4.13;;;24.00;46.10;;;;;;5053365;28;20074;-81
2023/05/23 10:57:01;;;;;;;6.40;4.00;;;24.00;44.10;;;;;;5053213;28;20051;-81
2023/05/23 10:59:27;;;;;;;3.75;3.35;;;24.00;43.80;;;;;;5035442;28;20041;-80
2023/05/23 11:01:54;;;;;;;4.85;2.97;;;24.10;43.30;;;;;;5053112;28;20040;-80
2023/05/23 11:04:29;;;;;;;4.32;3.70;;;24.40;41.70;;;;;;5035555;28;20092;-81
2023/05/23 11:06:56;;;;;;;4.93;3.30;;;24.30;46.20;;;;;;5034551;28;20166;-82
2023/05/23 11:09:22;;;;;;;18.33;10.65;;;24.10;42.60;;;;;;5035175;28;20056;-80
2023/05/23 11:11:53;;;;;;;5.85;3.33;;;24.10;45.60;;;;;;5035206;28;20068;-82
2023/05/23 11:14:37;;;;;;;5.27;3.20;;;24.10;44.90;;;;;;5053041;28;20032;-81
2023/05/23 11:17:11;;;;;;;5.25;4.00;;;24.10;44.10;;;;;;5035301;28;20036;-81
2023/05/23 11:19:57;;;;;;;4.78;3.72;;;24.20;43.50;;;;;;5053207;28;20052;-80
2023/05/23 11:22:27;;;;;;;5.28;3.20;;;24.50;42.00;;;;;;5052959;28;20036;-81
2023/05/23 11:24:54;;;;;;;5.50;3.33;;;24.40;39.80;;;;;;5052775;28;20386;-79
2023/05/23 11:27:37;;;;;;;4.75;3.90;;;24.30;40.90;;;;;;5034994;28;20032;-81
2023/05/23 11:30:08;;;;;;;3.95;3.55;;;24.50;44.30;;;;;;5052973;28;20029;-80
2023/05/23 11:32:35;;;;;;;5.07;3.50;;;24.50;44.90;;;;;;5052904;28;20096;-80
2023/05/23 11:35:06;;;;;;;4.82;3.42;;;24.70;45.10;;;;;;5035014;28;20029;-81
2023/05/23 11:37:32;;;;;;;5.80;3.83;;;24.60;44.50;;;;;;5034878;28;20021;-80
2023/05/23 11:39:58;;;;;;;4.18;3.55;;;24.50;44.30;;;;;;5034810;28;20111;-79
2023/05/23 11:42:24;;;;;;;6.38;3.60;;;24.60;42.70;;;;;;5034813;28;20114;-81
2023/05/23 11:44:50;;;;;;;4.07;3.47;;;24.70;41.80;;;;;;5034841;28;20017;-80
2023/05/23 11:47:17;;;;;;;4.97;3.60;;;24.80;42.10;;;;;;5052776;28;20056;-79
2023/05/23 11:49:47;;;;;;;4.97;3.38;;;24.80;41.80;;;;;;5052726;28;20025;-81
2023/05/23 11:52:13;;;;;;;6.30;3.72;;;24.60;42.30;;;;;;5052739;28;20025;-81
2023/05/23 11:54:41;;;;;;;4.28;3.70;;;24.40;42.50;;;;;;5034951;28;20108;-80
2023/05/23 11:57:07;;;;;;;3.95;3.20;;;24.30;41.90;;;;;;5034901;28;20044;-81
2023/05/23 11:59:33;;;;;;;14.43;5.60;;;24.30;42.10;;;;;;5034948;28;20083;-80
2023/05/23 12:02:01;;;;;;;6.00;3.92;;;24.30;41.80;;;;;;5052525;28;20393;-80
2023/05/23 12:04:27;;;;;;;10.82;4.38;;;24.30;43.20;;;;;;5034780;28;20017;-81
2023/05/23 12:06:52;;;;;;;6.45;3.65;;;24.60;43.90;;;;;;5052512;28;20079;-81
2023/05/23 12:09:18;;;;;;;10.93;3.30;;;24.40;42.40;;;;;;5034931;28;20056;-79
2023/05/23 12:11:44;;;;;;;4.25;3.45;;;24.30;43.90;;;;;;5052635;28;20375;-79
2023/05/23 12:14:15;;;;;;;6.82;3.70;;;24.10;45.00;;;;;;5034684;28;20104;-79
2023/05/23 12:16:47;;;;;;;5.97;3.67;;;24.10;44.50;;;;;;5034765;28;20039;-81
2023/05/23 12:19:15;;;;;;;12.63;4.15;;;24.10;45.30;;;;;;5036978;28;20041;-81
2023/05/23 12:21:41;;;;;;;15.80;4.80;;;24.20;46.40;;;;;;5038069;28;20036;-81
2023/05/23 12:24:27;;;;;;;5.57;3.60;;;24.10;45.20;;;;;;5038235;28;20025;-81
2023/05/23 12:26:56;;;;;;;13.90;4.07;;;24.00;44.20;;;;;;5037559;28;20128;-81
2023/05/23 12:29:33;;;;;;;6.97;4.00;;;24.00;44.50;;;;;;5055939;28;20021;-80
2023/05/23 12:32:00;;;;;;;5.18;3.80;;;24.20;43.40;;;;;;5037969;28;20025;-81
2023/05/23 12:34:26;;;;;;;26.92;6.15;;;24.30;44.10;;;;;;5037998;28;20399;-80
2023/05/23 12:36:57;;;;;;;8.90;4.05;;;24.30;45.00;;;;;;5037849;28;20032;-80
2023/05/23 12:39:27;;;;;;;5.93;3.80;;;24.40;44.80;;;;;;5055876;28;20504;-79
2023/05/23 12:41:57;;;;;;;4.72;3.42;;;24.50;43.30;;;;;;5055683;28;20037;-79
2023/05/23 12:44:23;;;;;;;12.95;4.55;;;24.70;43.70;;;;;;5055702;28;20474;-79
2023/05/23 12:46:48;;;;;;;7.00;4.05;;;24.70;43.60;;;;;;5037594;28;20386;-79
2023/05/23 12:49:14;;;;;;;5.85;3.95;;;24.60;43.80;;;;;;5055669;28;20031;-81